createdAt,value
2019-01-16T00:00:10.117Z,6.62
2019-01-16T00:03:14.925Z,6.63
2019-01-16T00:06:01.737Z,6.71
2019-01-16T00:08:48.631Z,6.67
2019-01-16T00:11:23.989Z,6.67
2019-01-16T00:14:28.665Z,6.63
2019-01-16T00:17:26.039Z,6.74
2019-01-16T00:20:21.645Z,6.67
2019-01-16T00:23:08.193Z,6.60
2019-01-16T00:25:54.835Z,6.69
2019-01-16T00:28:47.195Z,6.65
2019-01-16T00:31:33.783Z,6.65
2019-01-16T00:34:08.061Z,6.63
2019-01-16T00:37:00.992Z,6.66
2019-01-16T00:40:02.516Z,6.67
2019-01-16T00:42:49.067Z,6.68
2019-01-16T00:45:50.753Z,6.71
2019-01-16T00:48:28.642Z,6.72
2019-01-16T00:51:13.798Z,6.68
2019-01-16T00:54:00.357Z,6.70
2019-01-16T00:56:55.540Z,6.70
2019-01-16T00:59:33.527Z,6.69
2019-01-16T01:02:19.976Z,6.82
2019-01-16T01:05:21.849Z,6.78
2019-01-16T01:08:14.656Z,6.71
2019-01-16T01:10:48.776Z,6.75
2019-01-16T01:13:25.108Z,6.72
2019-01-16T01:16:14.486Z,6.67
2019-01-16T01:18:59.598Z,6.71
2019-01-16T01:22:03.954Z,6.63
2019-01-16T01:24:53.413Z,6.71
2019-01-16T01:27:42.602Z,6.74
2019-01-16T01:30:36.298Z,6.74
2019-01-16T01:33:25.622Z,6.83
2019-01-16T01:36:10.913Z,6.72
2019-01-16T01:39:06.035Z,6.71
2019-01-16T01:41:50.241Z,6.78
2019-01-16T01:44:37.284Z,6.84
2019-01-16T01:47:22.994Z,6.79
2019-01-16T01:50:09.021Z,6.73
2019-01-16T01:52:58.329Z,6.79
2019-01-16T01:55:48.101Z,6.78
2019-01-16T01:58:35.154Z,6.75
2019-01-16T02:01:20.701Z,6.78
2019-01-16T02:04:06.887Z,6.83
2019-01-16T02:07:02.524Z,6.76
2019-01-16T02:09:48.642Z,6.73
2019-01-16T02:12:41.585Z,6.77
2019-01-16T02:15:29.353Z,6.80
2019-01-16T02:18:07.885Z,6.68
2019-01-16T02:20:52.835Z,6.73
2019-01-16T02:23:39.760Z,6.83
2019-01-16T02:26:18.799Z,6.77
2019-01-16T02:29:08.887Z,6.77
2019-01-16T02:31:56.089Z,6.72
2019-01-16T02:34:57.680Z,6.79
2019-01-16T02:37:43.352Z,6.79
2019-01-16T02:40:19.072Z,6.75
2019-01-16T02:43:08.791Z,6.69
2019-01-16T02:46:01.694Z,6.67
2019-01-16T02:48:55.662Z,6.73
2019-01-16T02:51:42.538Z,6.63
2019-01-16T02:54:39.797Z,6.67
2019-01-16T02:57:19.144Z,6.73
2019-01-16T03:00:02.714Z,6.60
2019-01-16T03:02:47.997Z,6.54
2019-01-16T03:05:33.555Z,6.47
2019-01-16T03:08:15.665Z,6.46
2019-01-16T03:11:03.114Z,6.51
2019-01-16T03:13:55.798Z,6.42
2019-01-16T03:16:57.387Z,6.58
2019-01-16T03:19:44.214Z,6.54
2019-01-16T03:22:20.291Z,6.53
2019-01-16T03:25:05.943Z,6.47
2019-01-16T03:28:07.821Z,6.41
2019-01-16T03:30:56.948Z,6.48
2019-01-16T03:33:43.533Z,6.48
2019-01-16T03:36:39.466Z,6.61
2019-01-16T03:39:43.212Z,6.60
2019-01-16T03:42:23.499Z,6.60
2019-01-16T03:45:22.205Z,6.60
2019-01-16T03:48:05.519Z,6.61
2019-01-16T03:50:43.166Z,6.62
2019-01-16T03:53:29.761Z,6.63
2019-01-16T03:56:19.083Z,6.62
2019-01-16T03:59:08.193Z,6.65
2019-01-16T04:02:00.658Z,6.60
2019-01-16T04:04:50.302Z,6.76
2019-01-16T04:07:42.586Z,6.73
2019-01-16T04:10:32.538Z,6.72
2019-01-16T04:13:11.341Z,6.67
2019-01-16T04:15:47.033Z,6.69
2019-01-16T04:18:45.780Z,6.78
2019-01-16T04:21:32.373Z,6.76
2019-01-16T04:24:11.670Z,6.75
2019-01-16T04:27:16.425Z,6.75
2019-01-16T04:30:09.970Z,6.79
2019-01-16T04:32:48.249Z,6.78
2019-01-16T04:35:46.866Z,6.79
2019-01-16T04:38:22.870Z,6.73
2019-01-16T04:40:59.904Z,6.70
2019-01-16T04:43:33.454Z,6.73
2019-01-16T04:46:26.284Z,6.85
2019-01-16T04:49:06.462Z,6.80
2019-01-16T04:51:51.793Z,6.88
2019-01-16T04:54:32.749Z,6.70
2019-01-16T04:57:08.051Z,6.81
2019-01-16T05:00:00.841Z,6.85
2019-01-16T05:02:46.303Z,6.85
2019-01-16T05:05:42.230Z,6.82
2019-01-16T05:08:46.943Z,6.80
2019-01-16T05:11:31.979Z,6.81
2019-01-16T05:14:15.687Z,6.81
2019-01-16T05:17:01.130Z,6.84
2019-01-16T05:20:02.544Z,6.79
2019-01-16T05:22:51.957Z,6.84
2019-01-16T05:25:38.546Z,6.88
2019-01-16T05:28:14.413Z,6.89
2019-01-16T05:31:13.002Z,6.88
2019-01-16T05:33:59.598Z,6.89
2019-01-16T05:36:44.812Z,6.80
2019-01-16T05:39:22.475Z,6.80
2019-01-16T05:42:12.332Z,6.94
2019-01-16T05:44:57.731Z,6.90
2019-01-16T05:47:47.341Z,6.86
2019-01-16T05:50:33.912Z,6.81
2019-01-16T05:53:19.148Z,6.77
2019-01-16T05:56:17.533Z,6.78
2019-01-16T05:59:09.817Z,6.65
2019-01-16T06:02:05.463Z,6.71
2019-01-16T06:04:42.123Z,6.58
2019-01-16T06:07:21.195Z,6.68
2019-01-16T06:10:20.080Z,6.72
2019-01-16T06:12:55.930Z,6.69
2019-01-16T06:15:41.052Z,6.62
2019-01-16T06:18:26.629Z,6.60
2019-01-16T06:21:11.701Z,6.55
2019-01-16T06:24:10.547Z,6.61
2019-01-16T06:27:06.014Z,6.57
2019-01-16T06:30:02.452Z,6.47
2019-01-16T06:32:49.291Z,6.48
2019-01-16T06:35:34.667Z,6.49
2019-01-16T06:38:36.164Z,6.44
2019-01-16T06:41:25.525Z,6.43
2019-01-16T06:44:20.875Z,6.57
2019-01-16T06:47:22.620Z,6.59
2019-01-16T06:50:16.474Z,6.50
2019-01-16T06:53:06.560Z,6.45
2019-01-16T06:55:55.631Z,6.41
2019-01-16T06:58:40.736Z,6.35
2019-01-16T07:01:42.176Z,6.40
2019-01-16T07:04:27.124Z,6.28
2019-01-16T07:07:16.484Z,6.24
2019-01-16T07:10:01.869Z,6.30
2019-01-16T07:12:48.435Z,6.32
2019-01-16T07:15:50.197Z,6.23
2019-01-16T07:18:36.768Z,6.28
2019-01-16T07:21:23.324Z,6.34
2019-01-16T07:24:19.026Z,6.41
2019-01-16T07:27:04.320Z,6.42
2019-01-16T07:29:43.748Z,6.42
2019-01-16T07:32:30.449Z,6.41
2019-01-16T07:35:15.648Z,6.36
2019-01-16T07:37:53.377Z,6.41
2019-01-16T07:40:38.346Z,6.33
2019-01-16T07:43:23.869Z,6.38
2019-01-16T07:46:22.805Z,6.42
2019-01-16T07:49:14.417Z,6.34
2019-01-16T07:51:59.683Z,6.35
2019-01-16T07:54:47.423Z,6.38
2019-01-16T07:57:30.035Z,6.50
2019-01-16T08:00:31.691Z,6.47
2019-01-16T08:03:16.696Z,6.51
2019-01-16T08:06:05.982Z,6.46
2019-01-16T08:08:51.151Z,6.50
2019-01-16T08:11:32.062Z,6.54
2019-01-16T08:14:24.473Z,6.54
2019-01-16T08:17:11.713Z,6.57
2019-01-16T08:19:58.294Z,6.54
2019-01-16T08:22:43.915Z,6.53
2019-01-16T08:25:28.951Z,6.59
2019-01-16T08:28:14.108Z,6.69
2019-01-16T08:31:06.247Z,6.63
2019-01-16T08:33:51.440Z,6.65
2019-01-16T08:36:37.967Z,6.67
2019-01-16T08:39:26.300Z,6.54
2019-01-16T08:42:12.865Z,6.68
2019-01-16T08:44:57.838Z,6.65
2019-01-16T08:47:49.103Z,6.71
2019-01-16T08:50:50.095Z,6.72
2019-01-16T08:53:35.450Z,6.77
2019-01-16T08:56:20.695Z,6.91
2019-01-16T08:59:05.615Z,6.91
2019-01-16T09:01:43.162Z,6.78
2019-01-16T09:04:44.818Z,6.82
2019-01-16T09:07:29.380Z,6.84
2019-01-16T09:10:22.025Z,6.88
2019-01-16T09:13:08.334Z,6.85
2019-01-16T09:15:54.409Z,6.81
2019-01-16T09:18:31.191Z,6.92
2019-01-16T09:21:17.812Z,6.85
2019-01-16T09:24:09.933Z,6.82
2019-01-16T09:27:08.280Z,6.90
2019-01-16T09:30:09.946Z,6.86
2019-01-16T09:32:53.933Z,6.88
2019-01-16T09:35:45.473Z,6.90
2019-01-16T09:38:39.011Z,6.81
2019-01-16T09:41:15.097Z,6.83
2019-01-16T09:44:16.816Z,6.88
2019-01-16T09:47:01.848Z,6.87
2019-01-16T09:49:44.154Z,6.79
2019-01-16T09:52:42.754Z,6.84
2019-01-16T09:55:24.573Z,6.89
2019-01-16T09:58:29.329Z,6.86
2019-01-16T10:01:27.960Z,6.85
2019-01-16T10:04:23.338Z,6.97
2019-01-16T10:07:24.993Z,6.98
2019-01-16T10:10:14.357Z,6.98
2019-01-16T10:12:56.461Z,6.98
2019-01-16T10:15:43.520Z,6.98
2019-01-16T10:18:28.695Z,7.02
2019-01-16T10:21:14.331Z,7.03
2019-01-16T10:23:57.255Z,7.06
2019-01-16T10:26:42.717Z,6.96
2019-01-16T10:29:44.096Z,7.04
2019-01-16T10:32:29.801Z,7.08
2019-01-16T10:35:15.474Z,7.15
2019-01-16T10:38:00.643Z,7.23
2019-01-16T10:40:45.744Z,7.22
2019-01-16T10:43:47.161Z,7.25
2019-01-16T10:46:36.757Z,7.17
2019-01-16T10:49:16.075Z,7.20
2019-01-16T10:52:01.426Z,7.07
2019-01-16T10:54:45.489Z,7.07
2019-01-16T10:57:30.644Z,7.14
2019-01-16T11:00:26.579Z,7.08
2019-01-16T11:03:06.785Z,7.02
2019-01-16T11:05:53.321Z,7.04
2019-01-16T11:08:42.303Z,7.01
2019-01-16T11:11:27.184Z,7.04
2019-01-16T11:14:12.629Z,6.95
2019-01-16T11:16:59.212Z,6.94
2019-01-16T11:19:47.920Z,6.91
2019-01-16T11:22:37.292Z,6.92
2019-01-16T11:25:31.447Z,6.92
2019-01-16T11:28:14.944Z,6.83
2019-01-16T11:30:59.926Z,6.85
2019-01-16T11:33:49.038Z,6.85
2019-01-16T11:36:35.624Z,6.92
2019-01-16T11:39:22.742Z,6.85
2019-01-16T11:42:08.197Z,6.84
2019-01-16T11:44:53.665Z,6.83
2019-01-16T11:47:49.115Z,6.80
2019-01-16T11:50:28.888Z,6.83
2019-01-16T11:53:27.141Z,6.88
2019-01-16T11:56:19.545Z,6.86
2019-01-16T11:59:01.160Z,6.85
2019-01-16T12:01:47.713Z,6.82
2019-01-16T12:04:34.285Z,6.84
2019-01-16T12:07:38.830Z,6.85
2019-01-16T12:10:26.010Z,6.89
2019-01-16T12:13:21.652Z,6.78
2019-01-16T12:16:17.147Z,6.83
2019-01-16T12:19:03.712Z,6.78
2019-01-16T12:21:59.309Z,6.86
2019-01-16T12:24:44.614Z,6.88
2019-01-16T12:27:29.635Z,6.74
2019-01-16T12:30:15.097Z,6.80
2019-01-16T12:33:01.724Z,6.76
2019-01-16T12:35:39.355Z,6.82
2019-01-16T12:38:32.213Z,6.64
2019-01-16T12:41:27.826Z,6.72
2019-01-16T12:44:17.465Z,6.73
2019-01-16T12:46:59.095Z,6.73
2019-01-16T12:49:44.372Z,6.69
2019-01-16T12:52:29.959Z,6.48
2019-01-16T12:55:15.020Z,6.49
2019-01-16T12:58:01.398Z,6.60
2019-01-16T13:00:38.227Z,6.49
2019-01-16T13:03:23.532Z,6.48
2019-01-16T13:09:05.950Z,6.59
2019-01-16T13:11:41.142Z,6.57
2019-01-16T13:14:36.744Z,6.51
2019-01-16T13:17:18.847Z,6.50
2019-01-16T13:20:08.515Z,6.55
2019-01-16T13:22:51.575Z,6.51
2019-01-16T13:25:41.489Z,6.39
2019-01-16T13:28:40.145Z,6.35
2019-01-16T13:31:44.945Z,6.35
2019-01-16T13:34:49.517Z,6.45
2019-01-16T13:37:48.351Z,6.54
2019-01-16T13:40:37.811Z,6.54
2019-01-16T13:43:24.357Z,6.53
2019-01-16T13:46:13.946Z,6.51
2019-01-16T13:49:03.283Z,6.52
2019-01-16T13:51:52.592Z,6.51
2019-01-16T13:54:37.872Z,6.41
2019-01-16T13:57:23.621Z,6.39
2019-01-16T14:00:25.137Z,6.34
2019-01-16T14:03:17.648Z,6.45
2019-01-16T14:06:02.898Z,6.56
2019-01-16T14:08:47.830Z,6.45
2019-01-16T14:11:37.501Z,6.52
2019-01-16T14:14:32.989Z,6.42
2019-01-16T14:17:19.747Z,6.46
2019-01-16T14:20:05.052Z,6.44
2019-01-16T14:23:00.980Z,6.48
2019-01-16T14:25:47.717Z,6.50
2019-01-16T14:28:32.810Z,6.37
2019-01-16T14:31:27.204Z,6.44
2019-01-16T14:34:09.742Z,6.38
2019-01-16T14:36:54.986Z,6.34
2019-01-16T14:39:33.094Z,6.38
2019-01-16T14:42:23.390Z,6.28
2019-01-16T14:45:12.511Z,6.25
2019-01-16T14:48:00.977Z,6.35
2019-01-16T14:50:33.265Z,6.26
2019-01-16T14:53:21.272Z,6.27
2019-01-16T14:56:20.402Z,6.35
2019-01-16T14:59:16.510Z,6.29
2019-01-16T15:02:01.663Z,6.23
2019-01-16T15:05:03.609Z,6.33
2019-01-16T15:07:48.408Z,6.21
2019-01-16T15:10:43.869Z,6.21
2019-01-16T15:13:33.561Z,6.22
2019-01-16T15:16:18.755Z,6.22
2019-01-16T15:19:03.122Z,6.21
2019-01-16T15:21:58.449Z,6.14
2019-01-16T15:25:03.468Z,6.21
2019-01-16T15:27:39.986Z,6.14
2019-01-16T15:30:33.135Z,6.13
2019-01-16T15:33:13.186Z,6.10
2019-01-16T15:36:15.156Z,6.14
2019-01-16T15:38:49.532Z,6.20
2019-01-16T15:41:39.052Z,5.94
2019-01-16T15:44:34.946Z,6.11
2019-01-16T15:47:20.596Z,6.12
2019-01-16T15:50:06.169Z,6.08
2019-01-16T15:52:51.645Z,6.08
2019-01-16T15:55:50.442Z,6.09
2019-01-16T15:58:30.479Z,6.02
2019-01-16T16:01:15.788Z,6.07
2019-01-16T16:04:15.030Z,6.13
2019-01-16T16:07:00.304Z,6.06
2019-01-16T16:09:36.443Z,6.13
2019-01-16T16:12:21.678Z,6.09
2019-01-16T16:14:56.143Z,6.02
2019-01-16T16:17:52.360Z,5.99
2019-01-16T16:20:51.330Z,5.86
2019-01-16T16:23:31.499Z,5.91
2019-01-16T16:26:30.560Z,5.95
2019-01-16T16:29:15.854Z,5.87
2019-01-16T16:32:11.730Z,6.00
2019-01-16T16:34:56.981Z,5.88
2019-01-16T16:37:46.585Z,5.80
2019-01-16T16:40:21.110Z,5.87
2019-01-16T16:43:07.749Z,5.82
2019-01-16T16:45:56.673Z,5.96
2019-01-16T16:48:49.320Z,5.92
2019-01-16T16:51:23.900Z,5.87
2019-01-16T16:54:16.802Z,5.87
2019-01-16T16:57:21.616Z,5.91
2019-01-16T17:00:06.790Z,5.94
2019-01-16T17:02:43.269Z,5.87
2019-01-16T17:05:21.728Z,5.91
2019-01-16T17:08:11.414Z,5.86
2019-01-16T17:11:10.044Z,5.88
2019-01-16T17:13:48.871Z,5.95
2019-01-16T17:16:50.060Z,5.83
2019-01-16T17:19:55.097Z,5.99
2019-01-16T17:22:40.555Z,5.96
2019-01-16T17:25:39.623Z,5.87
2019-01-16T17:28:28.715Z,5.85
2019-01-16T17:31:18.628Z,5.93
2019-01-16T17:34:09.228Z,5.85
2019-01-16T17:36:50.414Z,5.83
2019-01-16T17:39:40.073Z,5.87
2019-01-16T17:42:44.952Z,5.91
2019-01-16T17:45:34.586Z,5.98
2019-01-16T17:48:19.137Z,5.89
2019-01-16T17:51:00.437Z,5.73
2019-01-16T17:54:02.231Z,5.94
2019-01-16T17:56:50.525Z,5.83
2019-01-16T17:59:55.722Z,5.69
2019-01-16T18:02:40.060Z,5.75
2019-01-16T18:05:45.052Z,5.80
2019-01-16T18:08:37.323Z,5.85
2019-01-16T18:11:17.042Z,5.91
2019-01-16T18:14:09.417Z,5.83
2019-01-16T18:17:11.242Z,5.88
2019-01-16T18:20:09.975Z,5.84
2019-01-16T18:23:00.058Z,5.92
2019-01-16T18:25:49.659Z,5.88
2019-01-16T18:28:46.122Z,5.85
2019-01-16T18:31:42.676Z,5.87
2019-01-16T18:34:27.782Z,5.76
2019-01-16T18:37:02.665Z,5.84
2019-01-16T18:39:49.962Z,5.85
2019-01-16T18:42:46.949Z,5.90
2019-01-16T18:45:25.074Z,5.96
2019-01-16T18:48:14.502Z,5.97
2019-01-16T18:51:00.206Z,5.82
2019-01-16T18:53:39.786Z,5.83
2019-01-16T18:56:25.277Z,5.91
2019-01-16T18:59:16.468Z,5.84
2019-01-16T19:02:03.923Z,5.85
2019-01-16T19:04:41.609Z,5.74
2019-01-16T19:07:34.990Z,5.81
2019-01-16T19:10:21.619Z,5.82
2019-01-16T19:13:06.890Z,5.82
2019-01-16T19:15:48.376Z,5.80
2019-01-16T19:18:24.477Z,5.80
2019-01-16T19:21:04.951Z,5.80
2019-01-16T19:23:46.644Z,5.73
2019-01-16T19:26:26.726Z,5.81
2019-01-16T19:29:09.516Z,5.79
2019-01-16T19:31:56.074Z,5.74
2019-01-16T19:34:35.046Z,5.77
2019-01-16T19:37:24.633Z,5.88
2019-01-16T19:40:02.110Z,5.77
2019-01-16T19:42:47.133Z,5.77
2019-01-16T19:45:36.416Z,5.79
2019-01-16T19:48:21.766Z,5.80
2019-01-16T19:51:10.862Z,5.81
2019-01-16T19:54:15.558Z,5.79
2019-01-16T19:57:00.897Z,5.88
2019-01-16T20:00:02.321Z,5.82
2019-01-16T20:02:51.727Z,5.82
2019-01-16T20:05:53.303Z,5.84
2019-01-16T20:08:42.652Z,5.81
2019-01-16T20:11:38.136Z,5.87
2019-01-16T20:14:24.666Z,5.76
2019-01-16T20:17:09.874Z,5.85
2019-01-16T20:19:54.983Z,5.80
2019-01-16T20:22:47.770Z,5.77
2019-01-16T20:25:27.714Z,5.80
2019-01-16T20:28:13.760Z,5.84
2019-01-16T20:31:15.387Z,6.00
2019-01-16T20:34:11.113Z,5.91
2019-01-16T20:36:48.504Z,5.90
2019-01-16T20:39:44.774Z,5.90
2019-01-16T20:42:37.480Z,5.89
2019-01-16T20:45:16.037Z,5.88
2019-01-16T20:48:01.708Z,5.94
2019-01-16T20:50:47.149Z,5.92
2019-01-16T20:53:21.412Z,5.91
2019-01-16T20:55:59.089Z,5.96
2019-01-16T20:58:45.096Z,5.98
2019-01-16T21:01:30.929Z,5.90
2019-01-16T21:04:29.694Z,5.95
2019-01-16T21:07:19.005Z,5.98
2019-01-16T21:10:18.071Z,5.92
2019-01-16T21:13:13.771Z,5.86
2019-01-16T21:16:12.631Z,5.89
2019-01-16T21:18:57.050Z,5.96
2019-01-16T21:21:51.054Z,5.91
2019-01-16T21:24:36.558Z,6.01
2019-01-16T21:27:23.647Z,6.00
2019-01-16T21:30:16.670Z,5.94
2019-01-16T21:33:03.582Z,5.92
2019-01-16T21:35:52.908Z,6.00
2019-01-16T21:38:58.229Z,5.91
2019-01-16T21:41:47.702Z,5.95
2019-01-16T21:44:26.258Z,6.00
2019-01-16T21:47:08.743Z,5.96
2019-01-16T21:49:54.361Z,5.94
2019-01-16T21:52:47.605Z,5.94
2019-01-16T21:55:38.091Z,5.91
2019-01-16T21:58:24.887Z,5.95
2019-01-16T22:01:13.938Z,5.98
2019-01-16T22:04:19.253Z,5.91
2019-01-16T22:07:06.424Z,5.86
2019-01-16T22:09:53.301Z,5.95
2019-01-16T22:12:40.204Z,5.99
2019-01-16T22:15:50.195Z,5.90
2019-01-16T22:18:29.870Z,5.93
2019-01-16T22:21:32.419Z,5.91
2019-01-16T22:24:17.611Z,5.86
2019-01-16T22:27:01.250Z,5.88
2019-01-16T22:30:06.312Z,5.84
2019-01-16T22:33:02.695Z,5.85
2019-01-16T22:35:55.562Z,5.85
2019-01-16T22:38:42.259Z,5.91
2019-01-16T22:41:32.106Z,5.85
2019-01-16T22:44:18.766Z,5.93
2019-01-16T22:47:02.815Z,5.89
2019-01-16T22:49:49.851Z,5.92
2019-01-16T22:52:35.481Z,5.77
2019-01-16T22:55:26.788Z,5.94
2019-01-16T22:58:27.344Z,5.83
2019-01-16T23:01:20.586Z,5.81
2019-01-16T23:04:07.301Z,5.84
2019-01-16T23:07:12.391Z,5.88
2019-01-16T23:09:56.421Z,5.90
2019-01-16T23:12:55.234Z,5.92
2019-01-16T23:15:45.300Z,5.93
2019-01-16T23:18:30.932Z,5.88
2019-01-16T23:21:16.174Z,5.91
2019-01-16T23:24:18.250Z,5.86
2019-01-16T23:26:57.484Z,5.91
2019-01-16T23:29:34.637Z,5.87
2019-01-16T23:32:16.905Z,5.86
2019-01-16T23:35:18.844Z,5.89
2019-01-16T23:38:00.249Z,5.99
2019-01-16T23:40:55.823Z,5.88
2019-01-16T23:43:33.049Z,5.88
2019-01-16T23:46:26.116Z,5.75
2019-01-16T23:49:18.933Z,5.76
2019-01-16T23:52:05.791Z,5.89
2019-01-16T23:54:43.450Z,5.83
2019-01-16T23:57:39.093Z,5.91
